sensor_id;sensor_type;location;lat;lon;timestamp;P1;durP1;ratioP1;P2;durP2;ratioP2
61460;SDS011;47325;50.506;4.472;2023-04-25T00:04:40;4.30;;;2.80;;
61460;SDS011;47325;50.506;4.472;2023-04-25T00:10:26;4.20;;;2.60;;
61460;SDS011;47325;50.506;4.472;2023-04-25T00:16:11;4.90;;;2.80;;
61460;SDS011;47325;50.506;4.472;2023-04-25T00:21:55;4.60;;;2.60;;
61460;SDS011;47325;50.506;4.472;2023-04-25T00:27:39;5.80;;;2.70;;
61460;SDS011;47325;50.506;4.472;2023-04-25T00:33:24;5.00;;;3.00;;
61460;SDS011;47325;50.506;4.472;2023-04-25T00:39:08;4.20;;;2.70;;
61460;SDS011;47325;50.506;4.472;2023-04-25T00:44:52;5.30;;;2.70;;
61460;SDS011;47325;50.506;4.472;2023-04-25T00:50:36;5.30;;;2.50;;
61460;SDS011;47325;50.506;4.472;2023-04-25T00:56:21;3.60;;;2.40;;
61460;SDS011;47325;50.506;4.472;2023-04-25T01:02:05;4.50;;;2.60;;
61460;SDS011;47325;50.506;4.472;2023-04-25T01:07:50;5.70;;;2.80;;
61460;SDS011;47325;50.506;4.472;2023-04-25T01:13:34;4.40;;;2.70;;
61460;SDS011;47325;50.506;4.472;2023-04-25T01:19:18;3.80;;;2.50;;
61460;SDS011;47325;50.506;4.472;2023-04-25T01:25:03;5.30;;;2.80;;
61460;SDS011;47325;50.506;4.472;2023-04-25T01:30:48;4.10;;;2.90;;
61460;SDS011;47325;50.506;4.472;2023-04-25T01:36:32;5.60;;;2.60;;
61460;SDS011;47325;50.506;4.472;2023-04-25T01:42:17;4.40;;;2.50;;
61460;SDS011;47325;50.506;4.472;2023-04-25T01:48:02;4.60;;;2.50;;
61460;SDS011;47325;50.506;4.472;2023-04-25T01:53:46;7.70;;;2.90;;
61460;SDS011;47325;50.506;4.472;2023-04-25T01:59:32;4.90;;;2.60;;
61460;SDS011;47325;50.506;4.472;2023-04-25T02:05:16;5.30;;;2.60;;
61460;SDS011;47325;50.506;4.472;2023-04-25T02:11:00;5.90;;;2.70;;
61460;SDS011;47325;50.506;4.472;2023-04-25T02:16:44;5.20;;;2.60;;
61460;SDS011;47325;50.506;4.472;2023-04-25T02:22:29;5.80;;;2.50;;
61460;SDS011;47325;50.506;4.472;2023-04-25T02:28:13;5.70;;;2.70;;
61460;SDS011;47325;50.506;4.472;2023-04-25T02:33:57;6.00;;;2.80;;
61460;SDS011;47325;50.506;4.472;2023-04-25T02:39:42;5.30;;;2.60;;
61460;SDS011;47325;50.506;4.472;2023-04-25T02:45:26;7.40;;;2.70;;
61460;SDS011;47325;50.506;4.472;2023-04-25T02:51:10;5.60;;;2.60;;
61460;SDS011;47325;50.506;4.472;2023-04-25T02:56:54;8.90;;;3.10;;
61460;SDS011;47325;50.506;4.472;2023-04-25T03:02:38;6.40;;;2.60;;
61460;SDS011;47325;50.506;4.472;2023-04-25T03:08:24;5.40;;;2.60;;
61460;SDS011;47325;50.506;4.472;2023-04-25T03:14:08;8.20;;;2.70;;
61460;SDS011;47325;50.506;4.472;2023-04-25T03:19:52;5.60;;;2.40;;
61460;SDS011;47325;50.506;4.472;2023-04-25T03:25:37;5.90;;;2.60;;
61460;SDS011;47325;50.506;4.472;2023-04-25T03:31:22;5.50;;;2.70;;
61460;SDS011;47325;50.506;4.472;2023-04-25T03:37:06;8.20;;;2.60;;
61460;SDS011;47325;50.506;4.472;2023-04-25T03:42:51;7.60;;;2.70;;
61460;SDS011;47325;50.506;4.472;2023-04-25T03:48:36;5.90;;;2.70;;
61460;SDS011;47325;50.506;4.472;2023-04-25T03:54:25;7.10;;;2.60;;
61460;SDS011;47325;50.506;4.472;2023-04-25T04:00:10;5.60;;;2.50;;
61460;SDS011;47325;50.506;4.472;2023-04-25T04:05:55;7.60;;;2.70;;
61460;SDS011;47325;50.506;4.472;2023-04-25T04:11:39;7.20;;;2.60;;
61460;SDS011;47325;50.506;4.472;2023-04-25T04:17:23;6.00;;;2.70;;
61460;SDS011;47325;50.506;4.472;2023-04-25T04:23:08;6.00;;;2.40;;
61460;SDS011;47325;50.506;4.472;2023-04-25T04:28:52;7.70;;;2.80;;
61460;SDS011;47325;50.506;4.472;2023-04-25T04:34:36;6.50;;;2.60;;
61460;SDS011;47325;50.506;4.472;2023-04-25T04:40:21;6.60;;;2.50;;
61460;SDS011;47325;50.506;4.472;2023-04-25T04:46:05;5.80;;;2.60;;
61460;SDS011;47325;50.506;4.472;2023-04-25T04:51:49;6.80;;;3.00;;
61460;SDS011;47325;50.506;4.472;2023-04-25T04:57:34;6.80;;;2.80;;
61460;SDS011;47325;50.506;4.472;2023-04-25T05:03:18;7.60;;;2.90;;
61460;SDS011;47325;50.506;4.472;2023-04-25T05:09:05;5.30;;;2.70;;
61460;SDS011;47325;50.506;4.472;2023-04-25T05:14:49;8.00;;;3.00;;
61460;SDS011;47325;50.506;4.472;2023-04-25T05:20:34;8.20;;;3.50;;
61460;SDS011;47325;50.506;4.472;2023-04-25T05:26:18;5.80;;;2.80;;
61460;SDS011;47325;50.506;4.472;2023-04-25T05:32:02;6.00;;;2.90;;
61460;SDS011;47325;50.506;4.472;2023-04-25T05:37:46;6.10;;;2.70;;
61460;SDS011;47325;50.506;4.472;2023-04-25T05:43:32;6.50;;;2.80;;
61460;SDS011;47325;50.506;4.472;2023-04-25T05:49:17;6.30;;;2.90;;
61460;SDS011;47325;50.506;4.472;2023-04-25T05:55:05;9.60;;;2.90;;
61460;SDS011;47325;50.506;4.472;2023-04-25T06:00:49;7.50;;;2.70;;
61460;SDS011;47325;50.506;4.472;2023-04-25T06:06:35;8.20;;;2.70;;
61460;SDS011;47325;50.506;4.472;2023-04-25T06:12:19;6.10;;;2.80;;
61460;SDS011;47325;50.506;4.472;2023-04-25T06:18:03;7.50;;;2.60;;
61460;SDS011;47325;50.506;4.472;2023-04-25T06:23:47;6.10;;;2.60;;
61460;SDS011;47325;50.506;4.472;2023-04-25T06:29:34;10.50;;;2.70;;
61460;SDS011;47325;50.506;4.472;2023-04-25T06:35:18;5.40;;;2.30;;
61460;SDS011;47325;50.506;4.472;2023-04-25T06:41:02;8.20;;;2.70;;
61460;SDS011;47325;50.506;4.472;2023-04-25T06:46:47;5.70;;;2.40;;
61460;SDS011;47325;50.506;4.472;2023-04-25T06:52:31;8.70;;;2.90;;
61460;SDS011;47325;50.506;4.472;2023-04-25T06:58:18;7.90;;;2.90;;
61460;SDS011;47325;50.506;4.472;2023-04-25T07:04:03;7.00;;;3.10;;
61460;SDS011;47325;50.506;4.472;2023-04-25T07:09:48;8.60;;;2.80;;
61460;SDS011;47325;50.506;4.472;2023-04-25T07:15:32;8.20;;;3.00;;
61460;SDS011;47325;50.506;4.472;2023-04-25T07:21:17;10.40;;;3.10;;
61460;SDS011;47325;50.506;4.472;2023-04-25T07:27:01;10.70;;;3.10;;
61460;SDS011;47325;50.506;4.472;2023-04-25T07:32:46;8.90;;;3.20;;
61460;SDS011;47325;50.506;4.472;2023-04-25T07:38:31;8.40;;;3.20;;
61460;SDS011;47325;50.506;4.472;2023-04-25T07:44:15;8.60;;;3.80;;
61460;SDS011;47325;50.506;4.472;2023-04-25T07:50:00;13.00;;;4.70;;
61460;SDS011;47325;50.506;4.472;2023-04-25T07:55:45;10.60;;;4.30;;
61460;SDS011;47325;50.506;4.472;2023-04-25T08:01:30;10.20;;;4.20;;
61460;SDS011;47325;50.506;4.472;2023-04-25T08:07:15;11.20;;;4.10;;
61460;SDS011;47325;50.506;4.472;2023-04-25T08:12:59;11.20;;;4.10;;
61460;SDS011;47325;50.506;4.472;2023-04-25T08:18:43;11.70;;;4.30;;
61460;SDS011;47325;50.506;4.472;2023-04-25T08:24:28;9.90;;;3.90;;
61460;SDS011;47325;50.506;4.472;2023-04-25T08:30:13;12.50;;;4.10;;
61460;SDS011;47325;50.506;4.472;2023-04-25T08:35:57;9.50;;;3.80;;
61460;SDS011;47325;50.506;4.472;2023-04-25T08:41:41;9.50;;;4.20;;
61460;SDS011;47325;50.506;4.472;2023-04-25T08:47:25;11.00;;;3.90;;
61460;SDS011;47325;50.506;4.472;2023-04-25T08:53:12;9.70;;;3.90;;
61460;SDS011;47325;50.506;4.472;2023-04-25T08:58:56;10.20;;;3.80;;
61460;SDS011;47325;50.506;4.472;2023-04-25T09:04:41;12.70;;;4.10;;
61460;SDS011;47325;50.506;4.472;2023-04-25T09:10:26;9.20;;;3.20;;
61460;SDS011;47325;50.506;4.472;2023-04-25T09:16:13;8.80;;;3.20;;
61460;SDS011;47325;50.506;4.472;2023-04-25T09:21:59;6.90;;;3.30;;
61460;SDS011;47325;50.506;4.472;2023-04-25T09:27:53;8.10;;;3.10;;
61460;SDS011;47325;50.506;4.472;2023-04-25T09:33:38;7.70;;;3.10;;
61460;SDS011;47325;50.506;4.472;2023-04-25T09:39:22;9.30;;;3.40;;
61460;SDS011;47325;50.506;4.472;2023-04-25T09:45:07;9.60;;;2.70;;
61460;SDS011;47325;50.506;4.472;2023-04-25T09:51:01;6.60;;;2.70;;
61460;SDS011;47325;50.506;4.472;2023-04-25T09:56:47;5.60;;;2.60;;
61460;SDS011;47325;50.506;4.472;2023-04-25T10:02:32;7.90;;;2.60;;
61460;SDS011;47325;50.506;4.472;2023-04-25T10:08:17;8.20;;;2.90;;
61460;SDS011;47325;50.506;4.472;2023-04-25T10:14:02;6.30;;;2.50;;
61460;SDS011;47325;50.506;4.472;2023-04-25T10:19:46;4.40;;;2.30;;
61460;SDS011;47325;50.506;4.472;2023-04-25T10:25:31;5.90;;;2.60;;
61460;SDS011;47325;50.506;4.472;2023-04-25T10:31:16;6.60;;;2.40;;
61460;SDS011;47325;50.506;4.472;2023-04-25T10:37:01;6.70;;;2.10;;
61460;SDS011;47325;50.506;4.472;2023-04-25T10:42:45;7.00;;;2.10;;
61460;SDS011;47325;50.506;4.472;2023-04-25T10:48:30;7.30;;;2.30;;
61460;SDS011;47325;50.506;4.472;2023-04-25T10:54:15;5.00;;;1.90;;
61460;SDS011;47325;50.506;4.472;2023-04-25T11:00:04;8.00;;;1.90;;
61460;SDS011;47325;50.506;4.472;2023-04-25T11:05:49;4.50;;;1.60;;
61460;SDS011;47325;50.506;4.472;2023-04-25T11:11:40;4.90;;;1.90;;
61460;SDS011;47325;50.506;4.472;2023-04-25T11:17:26;5.80;;;2.10;;
61460;SDS011;47325;50.506;4.472;2023-04-25T11:23:11;3.90;;;1.80;;
61460;SDS011;47325;50.506;4.472;2023-04-25T11:28:56;5.50;;;1.80;;
61460;SDS011;47325;50.506;4.472;2023-04-25T11:34:42;5.00;;;1.80;;
61460;SDS011;47325;50.506;4.472;2023-04-25T11:40:27;5.20;;;1.80;;
61460;SDS011;47325;50.506;4.472;2023-04-25T11:46:11;3.70;;;1.50;;
61460;SDS011;47325;50.506;4.472;2023-04-25T11:51:56;5.80;;;1.90;;
61460;SDS011;47325;50.506;4.472;2023-04-25T11:57:41;4.30;;;1.60;;
61460;SDS011;47325;50.506;4.472;2023-04-25T12:03:26;3.60;;;1.40;;
61460;SDS011;47325;50.506;4.472;2023-04-25T12:09:14;4.20;;;1.50;;
61460;SDS011;47325;50.506;4.472;2023-04-25T12:15:07;2.90;;;1.10;;
61460;SDS011;47325;50.506;4.472;2023-04-25T12:20:48;3.70;;;1.40;;
61460;SDS011;47325;50.506;4.472;2023-04-25T12:26:38;2.50;;;1.10;;
61460;SDS011;47325;50.506;4.472;2023-04-25T12:32:28;4.60;;;1.20;;
61460;SDS011;47325;50.506;4.472;2023-04-25T12:38:12;4.70;;;1.30;;
61460;SDS011;47325;50.506;4.472;2023-04-25T12:44:01;4.40;;;1.30;;
61460;SDS011;47325;50.506;4.472;2023-04-25T12:49:46;3.50;;;1.20;;
61460;SDS011;47325;50.506;4.472;2023-04-25T12:55:30;3.60;;;1.20;;
61460;SDS011;47325;50.506;4.472;2023-04-25T13:01:14;3.40;;;1.30;;
61460;SDS011;47325;50.506;4.472;2023-04-25T13:06:59;3.70;;;1.20;;
61460;SDS011;47325;50.506;4.472;2023-04-25T13:12:43;3.30;;;1.30;;
61460;SDS011;47325;50.506;4.472;2023-04-25T13:18:27;4.00;;;1.00;;
61460;SDS011;47325;50.506;4.472;2023-04-25T13:24:11;3.00;;;1.10;;
61460;SDS011;47325;50.506;4.472;2023-04-25T13:29:56;3.70;;;1.40;;
61460;SDS011;47325;50.506;4.472;2023-04-25T13:35:40;4.00;;;1.10;;
61460;SDS011;47325;50.506;4.472;2023-04-25T13:41:25;2.50;;;1.10;;
61460;SDS011;47325;50.506;4.472;2023-04-25T13:47:09;2.60;;;0.90;;
61460;SDS011;47325;50.506;4.472;2023-04-25T13:52:54;2.00;;;0.90;;
61460;SDS011;47325;50.506;4.472;2023-04-25T13:58:38;4.80;;;1.00;;
61460;SDS011;47325;50.506;4.472;2023-04-25T14:04:23;1.70;;;0.80;;
61460;SDS011;47325;50.506;4.472;2023-04-25T14:10:08;1.90;;;0.90;;
61460;SDS011;47325;50.506;4.472;2023-04-25T14:15:53;2.50;;;0.90;;
61460;SDS011;47325;50.506;4.472;2023-04-25T14:21:38;2.10;;;0.90;;
61460;SDS011;47325;50.506;4.472;2023-04-25T14:27:25;1.80;;;0.90;;
61460;SDS011;47325;50.506;4.472;2023-04-25T14:33:12;2.10;;;1.00;;
61460;SDS011;47325;50.506;4.472;2023-04-25T14:38:56;2.00;;;0.90;;
61460;SDS011;47325;50.506;4.472;2023-04-25T14:44:41;3.10;;;1.10;;
61460;SDS011;47325;50.506;4.472;2023-04-25T14:50:25;2.40;;;1.10;;
61460;SDS011;47325;50.506;4.472;2023-04-25T14:56:10;2.60;;;1.00;;
61460;SDS011;47325;50.506;4.472;2023-04-25T15:01:55;2.20;;;0.90;;
61460;SDS011;47325;50.506;4.472;2023-04-25T15:07:44;2.30;;;1.00;;
61460;SDS011;47325;50.506;4.472;2023-04-25T15:13:29;2.50;;;1.00;;
61460;SDS011;47325;50.506;4.472;2023-04-25T15:19:13;3.20;;;1.20;;
61460;SDS011;47325;50.506;4.472;2023-04-25T15:24:57;2.60;;;1.10;;
61460;SDS011;47325;50.506;4.472;2023-04-25T15:30:41;2.00;;;1.10;;
61460;SDS011;47325;50.506;4.472;2023-04-25T15:36:25;4.80;;;1.30;;
61460;SDS011;47325;50.506;4.472;2023-04-25T15:42:10;2.60;;;1.10;;
61460;SDS011;47325;50.506;4.472;2023-04-25T15:47:54;3.80;;;1.10;;
61460;SDS011;47325;50.506;4.472;2023-04-25T15:53:39;2.80;;;1.00;;
61460;SDS011;47325;50.506;4.472;2023-04-25T15:59:23;2.80;;;1.20;;
61460;SDS011;47325;50.506;4.472;2023-04-25T16:05:09;3.20;;;1.00;;
61460;SDS011;47325;50.506;4.472;2023-04-25T16:10:54;1.80;;;1.00;;
61460;SDS011;47325;50.506;4.472;2023-04-25T16:16:38;3.80;;;1.20;;
61460;SDS011;47325;50.506;4.472;2023-04-25T16:22:23;2.90;;;1.00;;
61460;SDS011;47325;50.506;4.472;2023-04-25T16:28:07;3.10;;;1.10;;
61460;SDS011;47325;50.506;4.472;2023-04-25T16:33:52;10.00;;;3.70;;
61460;SDS011;47325;50.506;4.472;2023-04-25T16:39:36;19.00;;;6.00;;
61460;SDS011;47325;50.506;4.472;2023-04-25T16:45:21;28.70;;;9.30;;
61460;SDS011;47325;50.506;4.472;2023-04-25T16:51:05;19.80;;;6.00;;
61460;SDS011;47325;50.506;4.472;2023-04-25T16:56:49;15.50;;;4.50;;
61460;SDS011;47325;50.506;4.472;2023-04-25T17:02:33;14.10;;;4.00;;
61460;SDS011;47325;50.506;4.472;2023-04-25T17:08:18;16.30;;;3.70;;
61460;SDS011;47325;50.506;4.472;2023-04-25T17:14:03;8.70;;;3.20;;
61460;SDS011;47325;50.506;4.472;2023-04-25T17:19:47;7.70;;;2.90;;
61460;SDS011;47325;50.506;4.472;2023-04-25T17:25:31;8.90;;;2.40;;
61460;SDS011;47325;50.506;4.472;2023-04-25T17:31:15;8.40;;;2.50;;
61460;SDS011;47325;50.506;4.472;2023-04-25T17:37:00;6.20;;;2.20;;
61460;SDS011;47325;50.506;4.472;2023-04-25T17:42:44;6.40;;;2.30;;
61460;SDS011;47325;50.506;4.472;2023-04-25T17:48:28;6.60;;;2.20;;
61460;SDS011;47325;50.506;4.472;2023-04-25T17:54:12;6.30;;;2.00;;
61460;SDS011;47325;50.506;4.472;2023-04-25T17:59:57;6.30;;;1.70;;
61460;SDS011;47325;50.506;4.472;2023-04-25T18:05:42;5.80;;;1.70;;
61460;SDS011;47325;50.506;4.472;2023-04-25T18:11:27;4.50;;;1.30;;
61460;SDS011;47325;50.506;4.472;2023-04-25T18:17:11;3.90;;;1.50;;
61460;SDS011;47325;50.506;4.472;2023-04-25T18:22:55;5.20;;;1.40;;
61460;SDS011;47325;50.506;4.472;2023-04-25T18:28:39;5.10;;;1.30;;
61460;SDS011;47325;50.506;4.472;2023-04-25T18:34:23;3.80;;;1.30;;
61460;SDS011;47325;50.506;4.472;2023-04-25T18:40:10;4.20;;;1.40;;
61460;SDS011;47325;50.506;4.472;2023-04-25T18:45:55;3.90;;;1.20;;
61460;SDS011;47325;50.506;4.472;2023-04-25T18:51:39;3.90;;;1.30;;
61460;SDS011;47325;50.506;4.472;2023-04-25T18:57:23;4.30;;;1.60;;
61460;SDS011;47325;50.506;4.472;2023-04-25T19:03:07;4.50;;;1.30;;
61460;SDS011;47325;50.506;4.472;2023-04-25T19:08:53;5.60;;;2.00;;
61460;SDS011;47325;50.506;4.472;2023-04-25T19:14:37;5.80;;;1.50;;
61460;SDS011;47325;50.506;4.472;2023-04-25T19:20:21;6.00;;;1.30;;
61460;SDS011;47325;50.506;4.472;2023-04-25T19:26:06;5.20;;;1.60;;
61460;SDS011;47325;50.506;4.472;2023-04-25T19:31:52;6.60;;;1.90;;
61460;SDS011;47325;50.506;4.472;2023-04-25T19:37:36;6.20;;;1.60;;
61460;SDS011;47325;50.506;4.472;2023-04-25T19:43:21;5.00;;;1.30;;
61460;SDS011;47325;50.506;4.472;2023-04-25T19:49:06;4.00;;;1.40;;
61460;SDS011;47325;50.506;4.472;2023-04-25T19:54:54;4.30;;;1.50;;
61460;SDS011;47325;50.506;4.472;2023-04-25T20:00:39;4.40;;;1.40;;
61460;SDS011;47325;50.506;4.472;2023-04-25T20:06:23;4.60;;;1.40;;
61460;SDS011;47325;50.506;4.472;2023-04-25T20:12:07;3.10;;;1.20;;
61460;SDS011;47325;50.506;4.472;2023-04-25T20:17:52;3.50;;;1.30;;
61460;SDS011;47325;50.506;4.472;2023-04-25T20:23:36;3.50;;;1.30;;
61460;SDS011;47325;50.506;4.472;2023-04-25T20:29:21;3.10;;;1.20;;
61460;SDS011;47325;50.506;4.472;2023-04-25T20:35:06;4.00;;;1.50;;
61460;SDS011;47325;50.506;4.472;2023-04-25T20:40:50;3.80;;;1.40;;
61460;SDS011;47325;50.506;4.472;2023-04-25T20:46:35;5.60;;;1.40;;
61460;SDS011;47325;50.506;4.472;2023-04-25T20:52:19;6.30;;;1.30;;
61460;SDS011;47325;50.506;4.472;2023-04-25T20:58:03;4.40;;;1.50;;
61460;SDS011;47325;50.506;4.472;2023-04-25T21:03:48;5.20;;;1.40;;
61460;SDS011;47325;50.506;4.472;2023-04-25T21:09:33;5.50;;;1.50;;
61460;SDS011;47325;50.506;4.472;2023-04-25T21:15:18;4.10;;;1.10;;
61460;SDS011;47325;50.506;4.472;2023-04-25T21:21:03;3.20;;;1.30;;
61460;SDS011;47325;50.506;4.472;2023-04-25T21:26:48;5.70;;;1.40;;
61460;SDS011;47325;50.506;4.472;2023-04-25T21:32:33;3.60;;;1.20;;
61460;SDS011;47325;50.506;4.472;2023-04-25T21:38:17;4.00;;;1.60;;
61460;SDS011;47325;50.506;4.472;2023-04-25T21:44:03;4.90;;;1.60;;
61460;SDS011;47325;50.506;4.472;2023-04-25T21:49:48;3.40;;;1.40;;
61460;SDS011;47325;50.506;4.472;2023-04-25T21:55:32;3.10;;;1.30;;
61460;SDS011;47325;50.506;4.472;2023-04-25T22:01:21;4.00;;;1.30;;
61460;SDS011;47325;50.506;4.472;2023-04-25T22:07:06;2.70;;;1.30;;
61460;SDS011;47325;50.506;4.472;2023-04-25T22:12:50;3.10;;;1.40;;
61460;SDS011;47325;50.506;4.472;2023-04-25T22:18:35;2.90;;;1.20;;
61460;SDS011;47325;50.506;4.472;2023-04-25T22:24:19;2.50;;;1.20;;
61460;SDS011;47325;50.506;4.472;2023-04-25T22:30:04;2.30;;;1.30;;
61460;SDS011;47325;50.506;4.472;2023-04-25T22:35:49;3.00;;;1.20;;
61460;SDS011;47325;50.506;4.472;2023-04-25T22:41:33;3.30;;;1.60;;
61460;SDS011;47325;50.506;4.472;2023-04-25T22:47:17;2.60;;;1.40;;
61460;SDS011;47325;50.506;4.472;2023-04-25T22:53:02;2.40;;;1.50;;
61460;SDS011;47325;50.506;4.472;2023-04-25T22:58:47;3.20;;;1.50;;
61460;SDS011;47325;50.506;4.472;2023-04-25T23:04:32;3.70;;;1.40;;
61460;SDS011;47325;50.506;4.472;2023-04-25T23:10:17;3.00;;;1.50;;
61460;SDS011;47325;50.506;4.472;2023-04-25T23:16:07;2.60;;;1.50;;
61460;SDS011;47325;50.506;4.472;2023-04-25T23:21:51;2.20;;;1.50;;
61460;SDS011;47325;50.506;4.472;2023-04-25T23:27:36;3.90;;;1.40;;
61460;SDS011;47325;50.506;4.472;2023-04-25T23:33:20;3.40;;;1.60;;
61460;SDS011;47325;50.506;4.472;2023-04-25T23:39:04;2.00;;;1.30;;
61460;SDS011;47325;50.506;4.472;2023-04-25T23:44:49;2.40;;;1.50;;
61460;SDS011;47325;50.506;4.472;2023-04-25T23:50:33;3.60;;;1.40;;
61460;SDS011;47325;50.506;4.472;2023-04-25T23:56:17;3.20;;;1.30;;
